Time;durP1;ratioP1;P1;durP2;ratioP2;P2;SDS_P1;SDS_P2;PMS_P1;PMS_P2;Temp;Humidity;BMP_temperature;BMP_pressure;BME280_temperature;BME280_humidity;BME280_pressure;Samples;Min_cycle;Max_cycle;Signal;HPM_P1;HPM_P2
2022/04/21 00:00:21;;;;;;;0.30;0.20;;;;;;;7.04;100.00;95286.16;5132426;27;20959;-53
2022/04/21 00:02:50;;;;;;;0.40;0.30;;;;;;;7.40;100.00;95276.78;5133160;27;20505;-53
2022/04/21 00:05:19;;;;;;;1.50;1.50;;;;;;;7.38;100.00;95286.78;5132680;27;20466;-53
2022/04/21 00:07:48;;;;;;;0.43;0.43;;;;;;;7.43;100.00;95281.56;5132697;27;20466;-52
2022/04/21 00:10:17;;;;;;;0.30;0.20;;;;;;;7.35;100.00;95288.06;5132679;27;20425;-53
2022/04/21 00:12:46;;;;;;;0.30;0.30;;;;;;;7.50;100.00;95290.84;5132178;27;20955;-52
2022/04/21 00:15:16;;;;;;;0.47;0.47;;;;;;;7.21;100.00;95280.81;5132425;27;20502;-51
2022/04/21 00:17:45;;;;;;;0.30;0.20;;;;;;;7.28;100.00;95287.47;5132808;27;20462;-52
2022/04/21 00:20:14;;;;;;;0.30;0.23;;;;;;;6.75;100.00;95290.06;5132648;27;20550;-51
2022/04/21 00:25:29;;;;;;;0.30;0.20;;;;;;;7.08;100.00;95299.66;5132229;27;20422;-52
2022/04/21 00:27:58;;;;;;;0.30;0.20;;;;;;;7.14;100.00;95299.44;5132744;27;20476;-52
2022/04/21 00:30:28;;;;;;;0.40;0.40;;;;;;;7.44;100.00;95302.38;5132741;27;20795;-52
2022/04/21 00:32:57;;;;;;;0.30;0.20;;;;;;;7.43;100.00;95307.91;5132602;27;20507;-52
2022/04/21 00:35:26;;;;;;;0.30;0.20;;;;;;;7.55;100.00;95306.72;5132819;28;20442;-52
2022/04/21 00:37:56;;;;;;;1.80;0.67;;;;;;;7.67;100.00;95298.63;5131641;28;20502;-52
2022/04/21 00:40:27;;;;;;;1.07;0.97;;;;;;;7.68;100.00;95310.78;5132689;28;20438;-52
2022/04/21 00:42:56;;;;;;;0.30;0.20;;;;;;;7.64;100.00;95305.22;5132372;28;20466;-53
2022/04/21 00:45:25;;;;;;;0.30;0.20;;;;;;;7.60;100.00;95304.13;5132449;28;20521;-53
2022/04/21 00:47:57;;;;;;;0.30;0.20;;;;;;;7.62;100.00;95307.31;5132597;28;20427;-53
2022/04/21 00:50:28;;;;;;;0.30;0.20;;;;;;;7.67;100.00;95294.16;5132063;28;20517;-52
2022/04/21 00:52:58;;;;;;;0.30;0.30;;;;;;;7.41;100.00;95313.44;5132505;28;20989;-52
2022/04/21 00:55:27;;;;;;;0.30;0.30;;;;;;;7.42;100.00;95308.94;5132434;28;20461;-53
2022/04/21 00:57:56;;;;;;;0.30;0.30;;;;;;;7.53;100.00;95308.00;5132513;28;21018;-52
2022/04/21 01:00:24;;;;;;;0.30;0.20;;;;;;;7.42;100.00;95304.47;5132311;28;21042;-53
2022/04/21 01:02:55;;;;;;;0.40;0.40;;;;;;;7.57;100.00;95304.63;5132663;28;20420;-52
2022/04/21 01:05:33;;;;;;;0.30;0.20;;;;;;;7.45;100.00;95298.72;5132407;28;20431;-52
2022/04/21 01:08:03;;;;;;;0.30;0.20;;;;;;;7.00;100.00;95246.34;5132305;28;20415;-53
2022/04/21 01:10:32;;;;;;;0.30;0.20;;;;;;;7.12;100.00;95292.84;5132269;28;20916;-52
2022/04/21 01:13:04;;;;;;;0.30;0.20;;;;;;;7.13;100.00;95282.06;5132503;28;20434;-52
2022/04/21 01:15:32;;;;;;;0.40;0.40;;;;;;;7.36;100.00;95291.50;5132358;28;20804;-52
2022/04/21 01:18:00;;;;;;;0.87;0.50;;;;;;;7.33;100.00;95299.91;5132105;28;20458;-52
2022/04/21 01:20:30;;;;;;;0.30;0.20;;;;;;;7.13;100.00;95291.81;5132134;28;20531;-52
2022/04/21 01:22:59;;;;;;;0.30;0.20;;;;;;;7.25;100.00;95268.72;5132450;28;20461;-52
2022/04/21 01:25:27;;;;;;;0.30;0.20;;;;;;;7.35;100.00;95289.91;5132236;28;20510;-52
2022/04/21 01:27:59;;;;;;;0.30;0.20;;;;;;;7.35;100.00;95289.91;5131684;28;20878;-52
2022/04/21 01:30:27;;;;;;;0.30;0.20;;;;;;;7.24;100.00;95291.66;5132141;28;20418;-52
2022/04/21 01:32:56;;;;;;;0.30;0.20;;;;;;;7.16;100.00;95280.78;5131989;28;20423;-52
2022/04/21 01:35:24;;;;;;;0.30;0.20;;;;;;;7.11;100.00;95286.75;5131202;28;20410;-52
2022/04/21 01:43:24;;;;;;;0.30;0.20;;;;;;;6.88;100.00;95293.09;5135539;27;20500;-52
2022/04/21 01:45:53;;;;;;;0.30;0.20;;;;;;;6.78;100.00;95276.41;5135977;27;20518;-52
2022/04/21 01:48:21;;;;;;;0.40;0.30;;;;;;;6.82;100.00;95285.41;5135558;27;21002;-52
2022/04/21 01:50:50;;;;;;;0.30;0.30;;;;;;;6.76;100.00;95275.84;5135548;27;20517;-52
2022/04/21 01:53:19;;;;;;;0.57;0.57;;;;;;;7.10;100.00;95287.81;5135495;27;20900;-52
2022/04/21 01:55:48;;;;;;;0.40;0.30;;;;;;;6.71;100.00;95292.38;5135457;27;20484;-52
2022/04/21 01:58:16;;;;;;;0.40;0.30;;;;;;;6.15;100.00;95300.56;5135448;27;20947;-53
2022/04/21 02:00:45;;;;;;;0.30;0.30;;;;;;;6.31;100.00;95302.38;5135599;27;20516;-51
2022/04/21 02:03:13;;;;;;;2.10;0.77;;;;;;;5.77;100.00;95298.66;5135337;27;20469;-53
2022/04/21 02:05:42;;;;;;;0.40;0.33;;;;;;;6.33;100.00;95302.94;5135280;27;20514;-52
2022/04/21 02:08:10;;;;;;;0.30;0.30;;;;;;;6.63;100.00;95305.97;5135247;27;20518;-53
2022/04/21 02:10:40;;;;;;;0.70;0.70;;;;;;;6.36;100.00;95286.66;5135212;27;20514;-53
2022/04/21 02:13:08;;;;;;;0.30;0.20;;;;;;;6.50;100.00;95310.81;5135059;27;20455;-53
2022/04/21 02:15:37;;;;;;;1.17;1.17;;;;;;;6.23;100.00;95311.50;5135329;27;20881;-53
2022/04/21 02:18:05;;;;;;;0.33;0.33;;;;;;;6.65;100.00;95311.00;5135269;27;20432;-53
2022/04/21 02:20:34;;;;;;;0.30;0.23;;;;;;;6.66;100.00;95316.03;5135162;27;20502;-53
2022/04/21 02:23:02;;;;;;;0.30;0.20;;;;;;;6.66;100.00;95317.84;5134956;27;20983;-53
2022/04/21 02:25:30;;;;;;;0.37;0.30;;;;;;;6.75;100.00;95317.19;5134610;27;20521;-52
2022/04/21 02:28:00;;;;;;;0.33;0.27;;;;;;;6.99;100.00;95318.53;5134778;27;20462;-52
2022/04/21 02:30:29;;;;;;;0.30;0.20;;;;;;;6.84;100.00;95333.34;5134862;27;20477;-52
2022/04/21 02:32:57;;;;;;;0.30;0.20;;;;;;;6.73;100.00;95327.16;5134601;27;20927;-52
2022/04/21 02:35:26;;;;;;;1.23;0.60;;;;;;;6.73;100.00;95324.53;5134464;27;20462;-52
2022/04/21 02:37:54;;;;;;;0.50;0.50;;;;;;;7.01;100.00;95315.63;5134433;27;20934;-52
2022/04/21 02:40:23;;;;;;;3.70;0.33;;;;;;;6.92;100.00;95314.50;5134684;27;20458;-52
2022/04/21 02:42:51;;;;;;;0.30;0.20;;;;;;;6.90;100.00;95317.38;5134115;27;20562;-52
2022/04/21 02:45:21;;;;;;;0.30;0.20;;;;;;;7.10;100.00;95332.63;5134628;27;20517;-53
2022/04/21 02:47:50;;;;;;;0.50;0.40;;;;;;;7.19;100.00;95325.84;5133511;27;20513;-53
2022/04/21 02:50:21;;;;;;;0.30;0.23;;;;;;;7.12;100.00;95327.09;5134215;27;20470;-53
2022/04/21 02:52:51;;;;;;;0.77;0.77;;;;;;;6.96;100.00;95329.56;5134135;27;20525;-53
2022/04/21 02:58:06;;;;;;;0.30;0.20;;;;;;;6.73;100.00;95329.03;5133891;27;20469;-52
2022/04/21 03:00:36;;;;;;;1.60;1.50;;;;;;;6.48;100.00;95318.16;5133998;27;20497;-53
2022/04/21 03:03:04;;;;;;;1.00;1.00;;;;;;;6.23;100.00;95322.03;5133945;27;20505;-53
2022/04/21 03:05:33;;;;;;;0.37;0.27;;;;;;;6.01;100.00;95307.22;5133901;27;20926;-52
2022/04/21 03:08:01;;;;;;;1.03;0.60;;;;;;;5.68;100.00;95321.94;5134058;27;20505;-52
2022/04/21 03:10:30;;;;;;;0.30;0.20;;;;;;;6.14;100.00;95327.94;5134116;27;20449;-52
2022/04/21 03:12:59;;;;;;;1.80;0.40;;;;;;;6.27;100.00;95325.75;5133636;27;20521;-52
2022/04/21 03:15:27;;;;;;;0.50;0.50;;;;;;;6.56;100.00;95323.00;5134062;27;20865;-52
2022/04/21 03:17:57;;;;;;;0.30;0.20;;;;;;;5.98;100.00;95329.53;5133962;27;20509;-52
2022/04/21 03:25:57;;;;;;;0.30;0.30;;;;;;;5.59;100.00;95333.09;5133531;27;20426;-52
2022/04/21 03:28:25;;;;;;;0.40;0.20;;;;;;;6.03;100.00;95331.44;5133790;27;20451;-52
2022/04/21 03:30:54;;;;;;;0.43;0.37;;;;;;;5.97;100.00;95330.56;5133203;27;20427;-52
2022/04/21 03:33:24;;;;;;;0.50;0.40;;;;;;;6.16;100.00;95324.03;5133392;27;20433;-52
2022/04/21 03:35:53;;;;;;;0.40;0.37;;;;;;;6.36;100.00;95334.03;5133367;27;20426;-52
2022/04/21 03:38:21;;;;;;;0.40;0.30;;;;;;;6.24;100.00;95336.78;5133392;27;20506;-53
2022/04/21 03:40:50;;;;;;;3.03;2.93;;;;;;;6.14;100.00;95317.41;5133166;27;21021;-53
2022/04/21 03:43:18;;;;;;;1.03;0.97;;;;;;;5.94;100.00;95333.69;5132455;27;20550;-53
2022/04/21 03:45:46;;;;;;;0.40;0.30;;;;;;;5.90;100.00;95329.13;5133236;27;20466;-52
2022/04/21 03:48:16;;;;;;;0.70;0.70;;;;;;;5.61;100.00;95342.34;5133312;27;20480;-53
2022/04/21 03:50:45;;;;;;;0.37;0.30;;;;;;;5.80;100.00;95340.28;5133253;27;20988;-53
2022/04/21 03:53:14;;;;;;;0.70;0.70;;;;;;;5.99;100.00;95346.94;5133566;27;20844;-53
2022/04/21 03:55:42;;;;;;;0.30;0.20;;;;;;;5.13;100.00;95342.00;5132849;27;20470;-53
2022/04/21 03:58:10;;;;;;;1.13;0.77;;;;;;;5.18;100.00;95349.16;5132402;27;20458;-53
2022/04/21 04:00:39;;;;;;;0.30;0.20;;;;;;;4.72;100.00;95350.91;5132923;27;20510;-53
2022/04/21 04:03:07;;;;;;;1.13;0.50;;;;;;;4.95;100.00;95361.34;5132286;27;20479;-52
2022/04/21 04:05:36;;;;;;;2.87;1.73;;;;;;;4.71;100.00;95359.00;5132707;27;20466;-52
2022/04/21 04:10:54;;;;;;;0.30;0.20;;;;;;;5.25;100.00;95350.63;5132779;27;20434;-53
2022/04/21 04:13:24;;;;;;;0.60;0.60;;;;;;;4.58;100.00;95361.91;5132855;27;20423;-53
2022/04/21 04:15:53;;;;;;;0.40;0.30;;;;;;;4.96;100.00;95351.63;5132646;27;20513;-53
2022/04/21 04:18:22;;;;;;;2.03;1.87;;;;;;;5.01;100.00;95359.59;5132775;27;20872;-53
2022/04/21 04:20:51;;;;;;;0.30;0.20;;;;;;;5.61;100.00;95368.63;5132562;27;20504;-53
2022/04/21 04:23:22;;;;;;;0.30;0.20;;;;;;;6.20;100.00;95372.50;5132991;27;20457;-52
2022/04/21 04:25:51;;;;;;;0.30;0.30;;;;;;;5.71;100.00;95366.19;5132612;27;20852;-53
2022/04/21 04:28:19;;;;;;;1.60;1.40;;;;;;;5.26;100.00;95364.56;5132960;27;20445;-54
2022/04/21 04:30:48;;;;;;;0.40;0.40;;;;;;;5.03;100.00;95368.06;5132360;27;20509;-52
2022/04/21 04:33:16;;;;;;;0.40;0.30;;;;;;;5.21;100.00;95367.91;5132197;27;20459;-52
2022/04/21 04:35:44;;;;;;;0.33;0.27;;;;;;;5.10;100.00;95376.59;5132330;28;20520;-52
2022/04/21 04:38:14;;;;;;;0.40;0.30;;;;;;;4.95;100.00;95340.34;5130976;28;20436;-53
2022/04/21 04:40:44;;;;;;;0.30;0.20;;;;;;;5.14;100.00;95364.59;5132367;28;20459;-53
2022/04/21 04:43:11;;;;;;;0.40;0.33;;;;;;;5.38;100.00;95368.75;5131829;28;20549;-53
2022/04/21 04:48:26;;;;;;;0.40;0.30;;;;;;;6.17;100.00;95364.31;5132237;28;20415;-54
2022/04/21 04:50:54;;;;;;;0.40;0.40;;;;;;;6.25;100.00;95366.50;5132459;28;20521;-52
2022/04/21 04:53:22;;;;;;;0.30;0.20;;;;;;;6.34;100.00;95371.16;5132027;28;20510;-52
2022/04/21 04:55:52;;;;;;;1.10;1.10;;;;;;;6.42;100.00;95342.81;5132037;28;20459;-52
2022/04/21 04:58:20;;;;;;;0.83;0.83;;;;;;;6.58;100.00;95363.06;5131949;28;20822;-52
2022/04/21 05:00:49;;;;;;;0.90;0.90;;;;;;;6.76;100.00;95353.03;5131908;28;20498;-53
2022/04/21 05:03:19;;;;;;;0.40;0.30;;;;;;;6.88;100.00;95347.66;5132052;28;20426;-52
2022/04/21 05:05:47;;;;;;;1.00;1.00;;;;;;;6.73;100.00;95345.59;5132481;28;20468;-53
2022/04/21 05:08:16;;;;;;;0.97;0.97;;;;;;;6.53;100.00;95360.38;5132456;28;20466;-53
2022/04/21 05:10:45;;;;;;;0.40;0.30;;;;;;;6.46;100.00;95354.44;5132224;28;20515;-53
2022/04/21 05:13:15;;;;;;;2.63;0.80;;;;;;;6.79;100.00;95354.38;5132263;28;20458;-52
2022/04/21 05:15:44;;;;;;;0.50;0.50;;;;;;;6.79;100.00;95349.91;5133981;27;20502;-52
2022/04/21 05:18:13;;;;;;;0.60;0.60;;;;;;;7.16;100.00;95338.75;5136073;27;20840;-53
2022/04/21 05:20:42;;;;;;;0.90;0.90;;;;;;;7.30;100.00;95345.22;5136363;27;20450;-53
2022/04/21 05:23:15;;;;;;;0.43;0.40;;;;;;;7.33;100.00;95345.53;5136045;27;20518;-53
2022/04/21 05:25:44;;;;;;;1.07;1.07;;;;;;;6.84;100.00;95339.44;5136228;27;20548;-53
2022/04/21 05:28:15;;;;;;;3.70;3.40;;;;;;;7.49;100.00;95330.63;5135842;27;20878;-53
2022/04/21 05:30:55;;;;;;;11.13;2.57;;;;;;;7.66;100.00;95334.00;5135794;27;20453;-53
2022/04/21 05:33:25;;;;;;;0.93;0.93;;;;;;;8.02;100.00;95337.72;5135880;27;20457;-53
2022/04/21 05:35:55;;;;;;;0.63;0.63;;;;;;;7.79;100.00;95353.88;5135836;27;20438;-53
2022/04/21 05:38:24;;;;;;;2.13;2.10;;;;;;;7.79;100.00;95330.94;5135892;27;20438;-53
2022/04/21 05:40:53;;;;;;;0.93;0.93;;;;;;;8.26;100.00;95336.31;5136082;27;20482;-53
2022/04/21 05:43:30;;;;;;;4.30;1.87;;;;;;;8.70;100.00;95339.53;5135519;27;20914;-53
2022/04/21 05:45:59;;;;;;;3.03;2.00;;;;;;;8.89;100.00;95336.16;5135115;27;21026;-53
2022/04/21 05:48:28;;;;;;;1.37;1.17;;;;;;;8.70;100.00;95331.59;5135338;27;20895;-53
2022/04/21 05:51:00;;;;;;;10.90;1.27;;;;;;;8.93;100.00;95339.88;5135211;27;20491;-53
2022/04/21 05:53:29;;;;;;;1.13;1.03;;;;;;;8.73;100.00;95334.50;5135875;27;20419;-52
2022/04/21 05:55:58;;;;;;;2.50;1.07;;;;;;;9.14;100.00;95340.75;5135497;27;21004;-53
2022/04/21 05:58:27;;;;;;;1.77;1.70;;;;;;;8.47;100.00;95339.91;5135751;27;20816;-54
2022/04/21 06:01:00;;;;;;;0.97;0.97;;;;;;;8.26;100.00;95349.50;5135273;27;20431;-52
2022/04/21 06:03:31;;;;;;;2.83;2.43;;;;;;;8.01;100.00;95346.69;5135451;27;20419;-52
2022/04/21 06:06:00;;;;;;;3.60;2.33;;;;;;;8.03;100.00;95344.56;5135671;27;20487;-52
2022/04/21 06:08:29;;;;;;;0.67;0.60;;;;;;;7.97;100.00;95366.72;5135269;27;20927;-51
2022/04/21 06:10:58;;;;;;;0.40;0.37;;;;;;;7.90;100.00;95266.63;5135522;27;20422;-52
2022/04/21 06:13:30;;;;;;;3.10;2.53;;;;;;;8.00;100.00;95374.09;5134295;27;20509;-52
2022/04/21 06:15:58;;;;;;;1.73;1.63;;;;;;;8.38;100.00;95376.56;5132775;27;21022;-52
2022/04/21 06:18:27;;;;;;;1.67;0.67;;;;;;;7.93;100.00;95382.25;5132827;27;20422;-52
2022/04/21 06:20:56;;;;;;;4.70;1.53;;;;;;;8.09;100.00;95389.25;5132980;27;20447;-52
2022/04/21 06:23:24;;;;;;;1.57;1.23;;;;;;;7.82;100.00;95382.41;5133013;27;20514;-51
2022/04/21 06:25:58;;;;;;;2.93;2.80;;;;;;;7.83;100.00;95368.97;5132353;27;20849;-51
2022/04/21 06:28:29;;;;;;;0.53;0.53;;;;;;;8.02;100.00;95378.09;5133154;27;20660;-51
2022/04/21 06:30:58;;;;;;;0.70;0.70;;;;;;;8.55;100.00;95379.84;5134752;27;20454;-50
2022/04/21 06:33:27;;;;;;;1.03;1.03;;;;;;;8.11;100.00;95386.34;5134818;27;20422;-51
2022/04/21 06:35:56;;;;;;;2.30;2.10;;;;;;;7.56;100.00;95384.00;5134622;27;20861;-51
2022/04/21 06:38:25;;;;;;;0.57;0.57;;;;;;;7.45;100.00;95379.66;5134682;27;20878;-50
2022/04/21 06:40:53;;;;;;;0.70;0.70;;;;;;;7.38;100.00;95376.44;5134795;27;20497;-50
2022/04/21 06:49:09;;;;;;;0.60;0.60;;;;;;;7.91;100.00;95384.34;5070928;28;20461;-51
2022/04/21 06:51:39;;;;;;;0.50;0.40;;;;;;;7.84;100.00;95393.50;5108020;27;20437;-51
2022/04/21 06:54:26;;;;;;;1.17;0.50;;;;;;;7.94;100.00;95388.31;5134039;27;20466;-51
2022/04/21 06:56:54;;;;;;;0.93;0.93;;;;;;;8.34;100.00;95393.97;5134251;27;20922;-51
2022/04/21 06:59:23;;;;;;;2.63;2.43;;;;;;;9.12;100.00;95394.94;5134275;27;20513;-51
2022/04/21 07:01:53;;;;;;;0.70;0.70;;;;;;;9.29;100.00;95398.19;5134270;27;20549;-51
2022/04/21 07:04:27;;;;;;;2.60;0.40;;;;;;;9.89;100.00;95401.00;5134331;27;20491;-50
2022/04/21 07:06:56;;;;;;;0.77;0.77;;;;;;;10.46;100.00;95394.72;5134060;27;20437;-51
2022/04/21 07:09:24;;;;;;;0.60;0.60;;;;;;;10.66;100.00;95405.31;5134045;27;20505;-51
2022/04/21 07:11:53;;;;;;;0.40;0.20;;;;;;;11.05;100.00;95393.03;5134041;27;20433;-51
2022/04/21 07:14:21;;;;;;;0.40;0.30;;;;;;;11.67;100.00;95383.75;5133850;27;20827;-50
2022/04/21 07:16:49;;;;;;;0.43;0.40;;;;;;;10.82;98.84;95372.41;5133903;27;20949;-50
2022/04/21 07:19:19;;;;;;;0.60;0.60;;;;;;;10.79;100.00;95371.09;5133693;27;20458;-50
2022/04/21 07:21:48;;;;;;;0.80;0.80;;;;;;;10.95;100.00;95393.06;5133574;27;20466;-50
2022/04/21 07:24:16;;;;;;;0.50;0.40;;;;;;;11.05;100.00;95392.25;5133664;27;20494;-51
2022/04/21 07:26:44;;;;;;;0.70;0.40;;;;;;;10.68;100.00;95392.56;5133687;27;20469;-50
2022/04/21 07:29:13;;;;;;;3.13;0.30;;;;;;;11.33;100.00;95389.72;5133941;27;20433;-51
2022/04/21 07:31:41;;;;;;;0.73;0.50;;;;;;;11.48;96.99;95384.34;5133340;27;20466;-51
2022/04/21 07:34:11;;;;;;;0.90;0.80;;;;;;;11.98;94.07;95379.88;5133612;27;20466;-50
2022/04/21 07:36:42;;;;;;;0.80;0.80;;;;;;;12.55;90.33;95381.81;5133423;27;20449;-50
2022/04/21 07:39:10;;;;;;;1.57;1.47;;;;;;;12.13;90.48;95386.94;5132750;27;20423;-50
2022/04/21 07:41:39;;;;;;;2.30;1.40;;;;;;;11.19;95.43;95372.81;5133556;27;20864;-50
2022/04/21 07:44:08;;;;;;;1.70;1.30;;;;;;;11.92;90.71;95388.94;5133201;27;20466;-51
2022/04/21 07:46:36;;;;;;;0.70;0.70;;;;;;;12.21;84.39;95383.69;5133480;27;20843;-51
2022/04/21 07:53:12;;;;;;;0.90;0.53;;;;;;;12.15;84.46;95388.25;5133034;27;20466;-51
2022/04/21 07:54:39;;;;;;;0.70;0.67;;;;;;;13.42;81.21;95367.34;5132963;27;20446;-51
2022/04/21 07:57:07;;;;;;;0.50;0.50;;;;;;;13.63;71.94;95374.03;5132963;27;20457;-51
2022/04/21 07:59:36;;;;;;;0.40;0.30;;;;;;;13.38;72.71;95369.03;5132965;27;20422;-51
2022/04/21 08:02:06;;;;;;;0.70;0.30;;;;;;;13.94;69.25;95377.84;5133122;27;20875;-51
2022/04/21 08:04:37;;;;;;;0.40;0.30;;;;;;;12.95;77.11;95359.38;5132908;27;20469;-51
2022/04/21 08:07:07;;;;;;;1.83;1.73;;;;;;;13.01;78.99;95356.34;5133178;27;20461;-52
2022/04/21 08:09:36;;;;;;;0.40;0.30;;;;;;;14.23;74.27;95361.69;5132659;27;20466;-52
2022/04/21 08:12:05;;;;;;;0.47;0.30;;;;;;;13.73;61.34;95363.22;5132987;27;20451;-52
2022/04/21 08:14:33;;;;;;;0.73;0.73;;;;;;;13.89;61.87;95361.91;5132728;27;20543;-52
2022/04/21 08:17:02;;;;;;;0.67;0.67;;;;;;;14.36;59.83;95360.97;5132766;27;20472;-52
2022/04/21 08:19:30;;;;;;;1.23;0.50;;;;;;;15.45;54.13;95355.81;5132986;27;20853;-52
2022/04/21 08:21:59;;;;;;;0.63;0.43;;;;;;;14.41;55.60;95360.09;5132738;27;20502;-53
2022/04/21 08:33:18;;;;;;;1.33;1.30;;;;;;;14.34;53.62;95360.50;5132774;27;20455;-53
2022/04/21 08:35:48;;;;;;;0.80;0.70;;;;;;;14.22;55.02;95362.75;5132540;27;20438;-53
2022/04/21 08:38:16;;;;;;;0.40;0.30;;;;;;;14.77;55.86;95357.63;5132510;28;20979;-53
2022/04/21 08:40:53;;;;;;;0.97;0.57;;;;;;;15.04;56.86;95363.78;5132489;28;20421;-53
2022/04/21 08:43:22;;;;;;;0.50;0.50;;;;;;;15.01;53.52;95374.25;5132147;28;20522;-53
2022/04/21 08:45:51;;;;;;;0.50;0.50;;;;;;;15.17;50.93;95363.00;5132674;28;20501;-53
2022/04/21 08:48:21;;;;;;;0.60;0.50;;;;;;;15.31;48.40;95359.53;5132756;28;20433;-53
2022/04/21 08:50:50;;;;;;;0.40;0.30;;;;;;;16.32;44.81;95356.25;5135955;27;20454;-51
2022/04/21 08:53:21;;;;;;;0.60;0.40;;;;;;;15.84;45.04;95341.88;5136706;27;20431;-53
2022/04/21 08:55:51;;;;;;;0.47;0.47;;;;;;;15.62;46.97;95357.84;5136737;27;20514;-52
2022/04/21 08:58:20;;;;;;;1.20;0.53;;;;;;;15.30;47.49;95350.75;5136230;27;20474;-52
2022/04/21 09:00:51;;;;;;;0.40;0.30;;;;;;;15.61;48.55;95348.28;5136869;27;20454;-53
2022/04/21 09:03:19;;;;;;;0.47;0.43;;;;;;;16.28;43.51;95355.28;5136588;27;20470;-54
2022/04/21 09:05:48;;;;;;;0.73;0.73;;;;;;;16.02;43.25;95348.16;5136446;27;20457;-54
2022/04/21 09:08:21;;;;;;;1.70;1.33;;;;;;;15.52;44.28;95348.19;5136340;27;20426;-54
2022/04/21 09:11:06;;;;;;;0.40;0.30;;;;;;;16.15;44.02;95339.28;5136359;27;20430;-57
2022/04/21 09:13:36;;;;;;;0.40;0.30;;;;;;;16.92;44.49;95334.47;5136228;27;20430;-54
2022/04/21 09:16:06;;;;;;;0.70;0.60;;;;;;;17.02;44.69;95323.47;5136138;27;20427;-54
2022/04/21 09:18:39;;;;;;;0.40;0.30;;;;;;;17.12;42.77;95341.94;5136593;27;20458;-54
2022/04/21 09:21:09;;;;;;;0.57;0.50;;;;;;;16.78;46.16;95344.44;5136173;27;20418;-56
2022/04/21 09:23:37;;;;;;;0.40;0.30;;;;;;;17.61;40.13;95341.63;5136058;27;20501;-55
2022/04/21 09:26:12;;;;;;;0.73;0.73;;;;;;;17.39;38.18;95336.38;5135895;27;20990;-55
2022/04/21 09:28:54;;;;;;;0.40;0.30;;;;;;;18.19;39.20;95333.16;5136242;27;20410;-56
2022/04/21 09:31:24;;;;;;;0.50;0.30;;;;;;;18.32;40.17;95328.75;5135964;27;20927;-56
2022/04/21 09:33:53;;;;;;;0.77;0.40;;;;;;;19.46;37.83;95335.88;5135863;27;20427;-56
2022/04/21 09:36:22;;;;;;;0.43;0.30;;;;;;;18.67;39.00;95337.56;5135848;27;20434;-57
2022/04/21 09:38:59;;;;;;;0.40;0.30;;;;;;;19.30;36.58;95334.81;5135745;27;20505;-57
2022/04/21 09:41:31;;;;;;;0.40;0.20;;;;;;;21.07;34.51;95322.56;5135339;27;20430;-57
2022/04/21 09:46:07;;;;;;;0.40;0.30;;;;;;;20.58;30.10;95329.69;5134459;27;20560;-57
2022/04/21 09:47:04;;;;;;;0.40;0.30;;;;;;;19.81;30.32;95328.38;5133874;27;20508;-57
2022/04/21 09:49:36;;;;;;;0.87;0.67;;;;;;;20.92;30.79;95324.72;5135615;27;20502;-56
2022/04/21 09:52:05;;;;;;;0.50;0.37;;;;;;;21.13;26.53;95319.28;5135474;27;20923;-57
2022/04/21 09:54:34;;;;;;;0.50;0.30;;;;;;;20.33;26.80;95309.97;5135658;27;20461;-56
2022/04/21 09:57:05;;;;;;;0.40;0.30;;;;;;;20.89;27.82;95311.16;5133932;27;20466;-55
2022/04/21 09:59:35;;;;;;;0.40;0.30;;;;;;;20.84;28.42;95271.75;5135598;27;20427;-56
2022/04/21 10:02:05;;;;;;;0.40;0.30;;;;;;;21.65;29.37;95302.44;5134774;27;20526;-55
2022/04/21 10:04:36;;;;;;;0.40;0.40;;;;;;;21.28;30.07;95293.56;5135230;27;20458;-56
2022/04/21 10:07:06;;;;;;;0.40;0.30;;;;;;;21.30;31.77;95296.75;5134767;27;20997;-55
2022/04/21 10:09:34;;;;;;;0.63;0.40;;;;;;;20.66;32.52;95296.50;5134088;27;20480;-55
2022/04/21 10:12:07;;;;;;;0.50;0.30;;;;;;;20.57;32.74;95293.91;5134936;27;20886;-55
2022/04/21 10:14:36;;;;;;;0.40;0.30;;;;;;;20.85;33.85;95291.38;5134929;27;20505;-55
2022/04/21 10:17:09;;;;;;;0.70;0.43;;;;;;;20.40;33.26;95291.38;5135210;27;20469;-55
2022/04/21 10:19:38;;;;;;;0.50;0.30;;;;;;;20.36;33.78;95295.88;5134165;27;20445;-55
2022/04/21 10:22:14;;;;;;;0.50;0.40;;;;;;;19.35;35.32;95293.56;5134053;27;20466;-54
2022/04/21 10:24:44;;;;;;;0.50;0.30;;;;;;;20.12;35.88;95280.38;5134954;27;20465;-54
2022/04/21 10:27:36;;;;;;;0.40;0.30;;;;;;;20.27;35.58;95271.72;5134805;27;20515;-56
2022/04/21 10:30:12;;;;;;;0.40;0.27;;;;;;;19.47;37.43;95274.84;5134689;27;20474;-56
2022/04/21 10:32:52;;;;;;;0.50;0.50;;;;;;;17.92;39.94;95276.38;5134711;27;20506;-56
2022/04/21 10:35:38;;;;;;;0.40;0.30;;;;;;;18.77;39.49;95276.25;5134577;27;20430;-57
2022/04/21 10:38:20;;;;;;;0.40;0.30;;;;;;;19.14;38.54;95271.19;5134501;27;20446;-57
2022/04/21 10:41:00;;;;;;;0.43;0.37;;;;;;;19.75;39.22;95267.84;5134859;27;20505;-58
2022/04/21 10:44:03;;;;;;;0.40;0.30;;;;;;;18.72;39.46;95264.91;5133042;27;21631;-60
2022/04/21 10:46:32;;;;;;;0.80;0.70;;;;;;;18.33;40.43;95272.09;5134493;27;20457;-55
2022/04/21 10:49:02;;;;;;;0.40;0.20;;;;;;;18.92;39.77;95269.56;5134325;27;20916;-56
2022/04/21 10:58:51;;;;;;;0.40;0.30;;;;;;;17.75;42.25;95253.84;5132500;27;20475;-58
2022/04/21 11:01:24;;;;;;;0.40;0.30;;;;;;;18.62;41.53;95255.28;5131946;27;20499;-56
2022/04/21 11:04:19;;;;;;;0.40;0.30;;;;;;;18.72;42.46;95254.94;5133361;27;20545;-56
2022/04/21 11:07:10;;;;;;;0.40;0.30;;;;;;;17.29;44.03;95216.09;5133079;27;20483;-56
2022/04/21 11:09:44;;;;;;;0.40;0.30;;;;;;;17.26;48.08;95248.88;5132867;27;20430;-56
2022/04/21 11:12:49;;;;;;;0.40;0.30;;;;;;;17.60;45.36;95246.28;5132098;27;20521;-55
2022/04/21 11:15:39;;;;;;;0.50;0.30;;;;;;;16.99;45.62;95217.00;5133590;27;21022;-55
2022/04/21 11:18:13;;;;;;;0.40;0.20;;;;;;;17.80;44.77;95177.81;5134005;27;20809;-55
2022/04/21 11:20:43;;;;;;;0.50;0.30;;;;;;;17.99;42.90;95147.97;5133572;27;20435;-56
2022/04/21 11:23:22;;;;;;;0.50;0.37;;;;;;;18.15;44.13;95232.19;5134024;27;20479;-55
2022/04/21 11:25:52;;;;;;;0.40;0.40;;;;;;;17.91;46.22;95248.00;5133482;27;21003;-55
2022/04/21 11:28:24;;;;;;;0.53;0.40;;;;;;;18.67;42.76;95239.00;5133755;27;20868;-55
2022/04/21 11:30:57;;;;;;;0.40;0.30;;;;;;;18.66;42.17;95244.72;5133059;27;20433;-54
2022/04/21 11:33:27;;;;;;;0.40;0.23;;;;;;;18.22;43.86;95235.16;5132588;27;20545;-54
2022/04/21 11:36:03;;;;;;;0.40;0.33;;;;;;;17.09;46.24;95236.22;5133270;27;20740;-54
2022/04/21 11:38:33;;;;;;;0.37;0.27;;;;;;;17.49;49.20;95226.22;5133183;27;20426;-54
2022/04/21 11:41:03;;;;;;;0.40;0.30;;;;;;;18.51;45.18;95229.13;5133073;27;20434;-54
2022/04/21 11:43:32;;;;;;;0.40;0.20;;;;;;;17.72;46.16;95155.28;5132931;27;20496;-53
2022/04/21 11:46:02;;;;;;;0.70;0.60;;;;;;;18.29;47.22;95227.44;5132766;27;20494;-55
2022/04/21 11:48:34;;;;;;;0.50;0.40;;;;;;;17.64;46.12;95220.41;5133525;27;20414;-55
2022/04/21 11:51:03;;;;;;;0.63;0.53;;;;;;;18.10;47.07;95213.56;5132885;27;20974;-54
2022/04/21 11:53:34;;;;;;;0.83;0.83;;;;;;;18.01;49.57;95218.19;5133208;27;20507;-54
2022/04/21 11:56:04;;;;;;;0.70;0.33;;;;;;;18.36;47.20;95206.25;5132988;27;20454;-54
2022/04/21 11:58:34;;;;;;;0.40;0.20;;;;;;;18.47;48.01;95196.78;5132946;27;20539;-55
2022/04/21 12:06:41;;;;;;;1.10;0.47;;;;;;;17.71;45.89;95104.66;5133133;27;20442;-56
2022/04/21 12:09:15;;;;;;;0.40;0.30;;;;;;;18.89;43.12;95193.13;5132660;27;20476;-54
2022/04/21 12:11:48;;;;;;;0.40;0.23;;;;;;;17.61;43.59;95196.91;5132563;27;20435;-55
2022/04/21 12:14:17;;;;;;;0.60;0.60;;;;;;;17.99;44.34;95196.22;5132843;27;20514;-54
2022/04/21 12:16:47;;;;;;;0.40;0.40;;;;;;;18.35;44.36;95193.94;5132567;27;20974;-54
2022/04/21 12:19:19;;;;;;;3.03;0.83;;;;;;;18.32;43.59;95190.00;5132764;27;20419;-54
2022/04/21 12:21:57;;;;;;;3.40;0.80;;;;;;;17.98;45.50;95183.94;5132485;27;20498;-55
2022/04/21 12:24:33;;;;;;;0.67;0.67;;;;;;;18.16;45.12;95180.91;5132541;27;20905;-54
2022/04/21 12:27:03;;;;;;;2.83;0.50;;;;;;;18.08;46.59;95189.78;5132367;27;20498;-53
2022/04/21 12:29:45;;;;;;;37.67;1.10;;;;;;;17.72;48.10;95198.19;5132625;27;20418;-54
2022/04/21 12:32:17;;;;;;;0.40;0.30;;;;;;;17.57;49.93;95187.16;5132224;27;20430;-54
2022/04/21 12:34:47;;;;;;;1.27;0.50;;;;;;;17.51;49.55;95185.69;5132323;27;20928;-54
2022/04/21 12:37:16;;;;;;;0.40;0.23;;;;;;;17.61;49.97;95178.16;5132300;27;20931;-54
2022/04/21 12:39:45;;;;;;;0.80;0.30;;;;;;;17.55;50.93;95190.16;5131376;28;20517;-55
2022/04/21 12:42:34;;;;;;;0.47;0.40;;;;;;;17.36;53.19;95189.63;5132023;28;20449;-54